Time;durP1;ratioP1;P1;durP2;ratioP2;P2;SDS_P1;SDS_P2;PMS_P1;PMS_P2;Temp;Humidity;BMP_temperature;BMP_pressure;BME280_temperature;BME280_humidity;BME280_pressure;Samples;Min_cycle;Max_cycle;Signal;HPM_P1;HPM_P2
2023/11/23 00:00:04;;;;;;;0.90;0.77;;;9.40;99.90;;;;;;6268629;22;20391;-82
2023/11/23 00:02:31;;;;;;;1.40;0.93;;;9.30;99.90;;;;;;6218156;22;20023;-82
2023/11/23 00:04:58;;;;;;;0.90;0.70;;;9.30;99.90;;;;;;6242600;22;20023;-82
2023/11/23 00:07:25;;;;;;;1.10;0.70;;;9.30;1.00;;;;;;6266683;22;20072;-82
2023/11/23 00:09:52;;;;;;;1.65;0.98;;;9.40;1.00;;;;;;6216536;22;20065;-82
2023/11/23 00:12:19;;;;;;;1.00;0.80;;;9.30;1.00;;;;;;6216742;22;20073;-82
2023/11/23 00:14:46;;;;;;;1.30;0.90;;;9.30;1.00;;;;;;6216892;22;20473;-82
2023/11/23 00:17:15;;;;;;;1.10;0.80;;;9.30;1.00;;;;;;6217461;22;20011;-81
2023/11/23 00:19:42;;;;;;;0.85;0.70;;;9.30;1.00;;;;;;6267432;22;20019;-81
2023/11/23 00:22:09;;;;;;;1.50;1.10;;;9.30;1.00;;;;;;6216531;22;20027;-82
2023/11/23 00:24:36;;;;;;;1.42;1.10;;;9.30;1.00;;;;;;6215995;22;20023;-81
2023/11/23 00:27:04;;;;;;;1.58;1.10;;;9.20;1.00;;;;;;6242239;22;20023;-81
2023/11/23 00:29:31;;;;;;;1.23;1.00;;;9.20;1.00;;;;;;6264915;22;20058;-81
2023/11/23 00:31:58;;;;;;;1.02;0.82;;;9.10;1.00;;;;;;6266640;22;20015;-82
2023/11/23 00:34:25;;;;;;;1.17;0.85;;;9.10;1.00;;;;;;6218562;22;20278;-82
2023/11/23 00:36:52;;;;;;;0.80;0.80;;;9.10;1.00;;;;;;6216280;22;20073;-82
2023/11/23 00:39:21;;;;;;;1.00;0.80;;;9.10;1.00;;;;;;6266302;22;20022;-81
2023/11/23 00:41:49;;;;;;;1.60;0.85;;;9.10;1.00;;;;;;6217852;22;20030;-81
2023/11/23 00:44:17;;;;;;;1.52;0.93;;;9.00;1.00;;;;;;6242333;22;20019;-82
2023/11/23 00:46:44;;;;;;;0.98;0.75;;;9.00;59.50;;;;;;6241622;22;20040;-81
2023/11/23 00:49:11;;;;;;;1.10;0.90;;;9.00;99.90;;;;;;6266851;22;20558;-81
2023/11/23 00:51:39;;;;;;;0.88;0.70;;;9.00;99.90;;;;;;6217295;22;20030;-82
2023/11/23 00:54:06;;;;;;;1.25;0.80;;;9.00;99.90;;;;;;6292965;22;20027;-81
2023/11/23 00:56:33;;;;;;;1.20;0.80;;;8.90;99.90;;;;;;6267264;22;20015;-81
2023/11/23 00:58:59;;;;;;;2.35;1.10;;;8.90;99.90;;;;;;6268366;22;20023;-81
2023/11/23 01:01:27;;;;;;;0.90;0.63;;;8.90;99.90;;;;;;6294213;22;20019;-81
2023/11/23 01:03:55;;;;;;;0.98;0.60;;;8.90;99.90;;;;;;6243090;22;20092;-81
2023/11/23 01:06:22;;;;;;;1.02;0.70;;;8.90;99.90;;;;;;6241778;22;20049;-81
2023/11/23 01:08:49;;;;;;;1.08;0.85;;;8.90;99.90;;;;;;6215712;22;20022;-83
2023/11/23 01:11:16;;;;;;;1.55;0.82;;;8.90;99.90;;;;;;6217178;22;20028;-81
2023/11/23 01:13:43;;;;;;;1.75;0.90;;;8.90;99.90;;;;;;6268039;22;20026;-82
2023/11/23 01:16:10;;;;;;;1.30;0.85;;;8.90;99.90;;;;;;6217864;22;20522;-81
2023/11/23 01:18:38;;;;;;;1.10;0.80;;;8.80;99.90;;;;;;6242494;22;20057;-82
2023/11/23 01:21:05;;;;;;;1.73;1.17;;;8.80;99.90;;;;;;6269121;22;20015;-82
2023/11/23 01:23:32;;;;;;;0.80;0.80;;;8.80;1.00;;;;;;6219084;22;20465;-82
2023/11/23 01:25:58;;;;;;;1.52;1.02;;;8.80;1.00;;;;;;6271743;22;20015;-81
2023/11/23 01:28:26;;;;;;;1.13;0.90;;;8.80;1.00;;;;;;6245629;22;20448;-82
2023/11/23 01:30:52;;;;;;;1.15;0.70;;;8.80;1.00;;;;;;6271130;22;20299;-81
2023/11/23 01:33:19;;;;;;;1.60;0.98;;;8.80;1.00;;;;;;6220287;22;20457;-82
2023/11/23 01:35:46;;;;;;;1.17;0.90;;;8.90;26.00;;;;;;6245922;22;20104;-82
2023/11/23 01:38:13;;;;;;;2.05;0.88;;;8.90;25.20;;;;;;6244015;22;20011;-81
2023/11/23 01:40:40;;;;;;;1.08;0.80;;;9.00;56.20;;;;;;6246342;22;20023;-82
2023/11/23 01:43:10;;;;;;;1.35;0.70;;;9.00;62.70;;;;;;6297957;22;20030;-81
2023/11/23 01:45:40;;;;;;;1.60;1.08;;;9.00;53.00;;;;;;6247415;22;20076;-82
2023/11/23 01:48:07;;;;;;;1.52;0.80;;;9.00;37.20;;;;;;6221426;22;20107;-82
2023/11/23 01:50:34;;;;;;;0.90;0.80;;;9.00;16.40;;;;;;6220756;22;20729;-81
2023/11/23 01:53:01;;;;;;;0.73;0.73;;;9.00;33.00;;;;;;6243669;22;20042;-82
2023/11/23 01:55:29;;;;;;;1.33;0.80;;;9.00;25.70;;;;;;6220355;22;20027;-82
2023/11/23 01:57:57;;;;;;;0.93;0.75;;;8.90;41.40;;;;;;6244649;22;20027;-81
2023/11/23 02:00:25;;;;;;;0.75;0.70;;;8.90;9.00;;;;;;6246822;22;20114;-81
2023/11/23 02:02:51;;;;;;;1.42;1.00;;;8.90;45.80;;;;;;6222085;22;20083;-81
2023/11/23 02:05:21;;;;;;;1.13;0.77;;;8.90;61.90;;;;;;6247370;22;20019;-82
2023/11/23 02:07:48;;;;;;;0.98;0.73;;;8.90;73.80;;;;;;6246627;22;20570;-82
2023/11/23 02:10:15;;;;;;;0.95;0.70;;;8.90;63.90;;;;;;6273776;22;20038;-82
2023/11/23 02:12:44;;;;;;;0.98;0.70;;;8.90;66.50;;;;;;6273161;22;20034;-82
2023/11/23 02:15:11;;;;;;;0.88;0.70;;;8.90;72.40;;;;;;6248028;22;20030;-82
2023/11/23 02:17:40;;;;;;;0.75;0.50;;;8.90;91.60;;;;;;6299740;22;20031;-82
2023/11/23 02:20:09;;;;;;;1.15;0.70;;;9.00;97.70;;;;;;6273799;22;20023;-82
2023/11/23 02:22:36;;;;;;;1.13;0.65;;;8.90;95.30;;;;;;6271612;22;20069;-82
2023/11/23 02:25:06;;;;;;;0.68;0.47;;;8.90;93.10;;;;;;6247452;22;20019;-83
2023/11/23 02:27:36;;;;;;;0.95;0.68;;;8.90;91.00;;;;;;6247365;22;20118;-82
2023/11/23 02:30:05;;;;;;;0.88;0.50;;;8.90;68.30;;;;;;6220037;22;20099;-82
2023/11/23 02:32:32;;;;;;;0.75;0.52;;;8.90;78.20;;;;;;6221973;22;20054;-82
2023/11/23 02:35:00;;;;;;;1.13;0.82;;;8.90;69.60;;;;;;6245636;22;20098;-81
2023/11/23 02:37:28;;;;;;;0.68;0.45;;;8.90;80.90;;;;;;6245480;22;20018;-83
2023/11/23 02:39:54;;;;;;;0.98;0.60;;;8.80;64.60;;;;;;6219713;22;20480;-82
2023/11/23 02:42:21;;;;;;;1.50;0.82;;;8.80;56.30;;;;;;6297885;22;20076;-82
2023/11/23 02:44:48;;;;;;;0.90;0.75;;;8.80;83.10;;;;;;6298365;22;20087;-82
2023/11/23 02:47:17;;;;;;;1.33;1.05;;;8.80;93.90;;;;;;6297889;22;20390;-82
2023/11/23 02:49:44;;;;;;;1.50;0.90;;;8.80;99.90;;;;;;6270858;22;20019;-82
2023/11/23 02:52:11;;;;;;;1.30;0.88;;;8.80;99.90;;;;;;6244921;22;20084;-82
2023/11/23 02:54:38;;;;;;;1.83;1.08;;;8.80;99.90;;;;;;6244439;22;20477;-82
2023/11/23 02:57:05;;;;;;;1.90;1.20;;;8.80;99.90;;;;;;6245755;22;20019;-81
2023/11/23 02:59:32;;;;;;;1.55;1.20;;;8.80;99.90;;;;;;6270961;22;20835;-82
2023/11/23 03:01:59;;;;;;;1.95;1.15;;;8.80;99.90;;;;;;6271006;22;20442;-82
2023/11/23 03:04:26;;;;;;;1.60;1.27;;;8.90;99.90;;;;;;6270746;22;20025;-82
2023/11/23 03:06:53;;;;;;;1.80;1.30;;;8.90;99.90;;;;;;6297391;22;20019;-82
2023/11/23 03:09:23;;;;;;;1.38;0.98;;;8.90;99.90;;;;;;6269675;22;20073;-82
2023/11/23 03:11:50;;;;;;;1.45;1.00;;;8.90;99.90;;;;;;6245259;22;20129;-82
2023/11/23 03:14:17;;;;;;;1.15;0.90;;;8.90;99.90;;;;;;6244847;22;20019;-82
2023/11/23 03:16:45;;;;;;;1.48;1.05;;;8.90;99.90;;;;;;6220222;22;20019;-82
2023/11/23 03:19:12;;;;;;;0.98;0.75;;;9.00;99.90;;;;;;6220986;22;20035;-82
2023/11/23 03:21:39;;;;;;;1.40;0.82;;;8.90;99.90;;;;;;6271335;22;20081;-82
2023/11/23 03:24:07;;;;;;;1.08;0.68;;;8.90;99.90;;;;;;6296797;22;20065;-83
2023/11/23 03:26:35;;;;;;;0.93;0.80;;;8.90;99.90;;;;;;6270202;22;20022;-82
2023/11/23 03:29:03;;;;;;;1.08;0.77;;;8.90;99.90;;;;;;6246130;22;20019;-82
2023/11/23 03:31:29;;;;;;;0.75;0.60;;;8.90;99.90;;;;;;6246182;22;20019;-82
2023/11/23 03:33:57;;;;;;;0.75;0.75;;;8.90;99.90;;;;;;6271133;22;20019;-82
2023/11/23 03:36:24;;;;;;;0.63;0.50;;;8.90;99.90;;;;;;6297983;22;20087;-81
2023/11/23 03:38:51;;;;;;;0.80;0.60;;;8.90;99.90;;;;;;6269920;22;20027;-83
2023/11/23 03:41:18;;;;;;;0.68;0.60;;;9.00;99.90;;;;;;6244897;22;20023;-82
2023/11/23 03:43:44;;;;;;;0.80;0.52;;;9.00;99.90;;;;;;6270274;22;20077;-82
2023/11/23 03:46:12;;;;;;;0.80;0.50;;;9.00;99.90;;;;;;6270206;22;20023;-82
2023/11/23 03:48:40;;;;;;;0.93;0.65;;;9.10;99.90;;;;;;6298093;22;20023;-82
2023/11/23 03:51:13;;;;;;;0.40;0.40;;;9.10;99.90;;;;;;6245189;22;20030;-82
2023/11/23 03:53:40;;;;;;;0.50;0.50;;;9.10;99.90;;;;;;6269146;22;20045;-82
2023/11/23 03:56:09;;;;;;;0.65;0.40;;;9.10;99.90;;;;;;6270276;22;20045;-82
2023/11/23 03:58:38;;;;;;;0.43;0.38;;;9.10;99.90;;;;;;6245703;22;20023;-82
2023/11/23 04:01:05;;;;;;;0.70;0.60;;;9.10;99.90;;;;;;6245457;22;20027;-83
2023/11/23 04:03:33;;;;;;;0.52;0.30;;;9.20;99.90;;;;;;6220088;22;20460;-83
2023/11/23 04:06:00;;;;;;;0.45;0.38;;;9.30;99.90;;;;;;6245461;22;20027;-82
2023/11/23 04:08:26;;;;;;;0.40;0.40;;;9.30;99.90;;;;;;6243203;22;20020;-82
2023/11/23 04:10:53;;;;;;;0.52;0.38;;;9.40;99.90;;;;;;6219965;22;20084;-82
2023/11/23 04:13:21;;;;;;;0.32;0.32;;;9.50;99.90;;;;;;6244717;22;20031;-82
2023/11/23 04:15:48;;;;;;;0.47;0.40;;;9.60;99.90;;;;;;6297780;22;20023;-82
2023/11/23 04:18:16;;;;;;;0.38;0.38;;;9.60;99.90;;;;;;6297434;22;20056;-82
2023/11/23 04:20:43;;;;;;;0.63;0.52;;;9.70;99.90;;;;;;6245526;22;20021;-82
2023/11/23 04:23:11;;;;;;;0.47;0.40;;;9.70;99.90;;;;;;6268535;22;20027;-83
2023/11/23 04:25:38;;;;;;;0.40;0.40;;;9.80;99.90;;;;;;6270299;22;20014;-83
2023/11/23 04:28:05;;;;;;;0.30;0.30;;;9.90;99.90;;;;;;6269962;22;20027;-82
2023/11/23 04:30:32;;;;;;;0.68;0.47;;;9.90;81.50;;;;;;6297066;22;20015;-82
2023/11/23 04:32:59;;;;;;;0.65;0.50;;;10.00;37.80;;;;;;6244809;22;20019;-82
2023/11/23 04:35:27;;;;;;;0.75;0.47;;;10.00;32.90;;;;;;6244954;22;20058;-82
2023/11/23 04:37:54;;;;;;;0.38;0.38;;;10.00;1.00;;;;;;6268070;22;20023;-82
2023/11/23 04:40:21;;;;;;;1.15;0.25;;;10.10;1.00;;;;;;6270152;22;20022;-82
2023/11/23 04:42:48;;;;;;;1.08;0.55;;;10.10;1.00;;;;;;6269625;22;20021;-82
2023/11/23 04:45:15;;;;;;;0.50;0.50;;;10.20;1.00;;;;;;6270294;22;20053;-82
2023/11/23 04:47:42;;;;;;;0.90;0.70;;;10.20;1.00;;;;;;6270103;22;20583;-82
2023/11/23 04:50:10;;;;;;;0.90;0.55;;;10.20;99.90;;;;;;6244529;22;20394;-82
2023/11/23 04:52:37;;;;;;;0.80;0.60;;;10.10;99.90;;;;;;6295563;22;20087;-82
2023/11/23 04:55:04;;;;;;;0.73;0.70;;;10.20;99.90;;;;;;6243929;22;20034;-82
2023/11/23 04:57:32;;;;;;;0.70;0.50;;;10.20;99.90;;;;;;6269737;22;20073;-82
2023/11/23 04:59:58;;;;;;;0.60;0.60;;;10.20;99.90;;;;;;6269259;22;20516;-82
2023/11/23 05:02:25;;;;;;;0.77;0.60;;;10.20;99.90;;;;;;6269538;22;20080;-81
2023/11/23 05:04:52;;;;;;;0.88;0.88;;;10.20;99.90;;;;;;6269748;22;20682;-82
2023/11/23 05:07:19;;;;;;;0.85;0.50;;;10.20;99.90;;;;;;6244121;22;20019;-82
2023/11/23 05:09:47;;;;;;;0.68;0.57;;;10.20;99.90;;;;;;6268185;22;20058;-82
2023/11/23 05:12:13;;;;;;;0.60;0.60;;;10.20;99.90;;;;;;6269375;22;20047;-82
2023/11/23 05:14:40;;;;;;;0.77;0.60;;;10.20;99.90;;;;;;6244023;22;20529;-82
2023/11/23 05:17:07;;;;;;;0.85;0.70;;;10.30;99.90;;;;;;6243915;22;20023;-82
2023/11/23 05:19:35;;;;;;;0.70;0.63;;;10.30;72.80;;;;;;6244650;22;20023;-83
2023/11/23 05:22:09;;;;;;;0.82;0.50;;;10.20;1.00;;;;;;6296095;22;20058;-83
2023/11/23 05:24:36;;;;;;;0.40;0.40;;;10.20;1.00;;;;;;6243629;22;20027;-82
2023/11/23 05:27:03;;;;;;;0.60;0.50;;;10.20;1.00;;;;;;6270137;22;21078;-84
2023/11/23 05:29:30;;;;;;;0.60;0.40;;;10.20;1.00;;;;;;6243757;22;20019;-83
2023/11/23 05:31:57;;;;;;;0.73;0.55;;;10.20;1.00;;;;;;6269915;22;20019;-83
2023/11/23 05:34:24;;;;;;;0.20;0.20;;;10.10;1.00;;;;;;6296040;22;20344;-82
2023/11/23 05:36:51;;;;;;;0.65;0.55;;;10.10;1.00;;;;;;6243632;22;20019;-83
2023/11/23 05:39:18;;;;;;;0.40;0.40;;;10.10;1.00;;;;;;6243268;22;20522;-82
2023/11/23 05:41:45;;;;;;;0.63;0.38;;;10.10;20.90;;;;;;6269922;22;20019;-81
2023/11/23 05:44:12;;;;;;;0.32;0.32;;;10.10;1.00;;;;;;6242339;22;20026;-81
2023/11/23 05:46:43;;;;;;;0.45;0.40;;;10.10;99.90;;;;;;6217760;22;20476;-83
2023/11/23 05:49:11;;;;;;;0.50;0.40;;;10.10;99.90;;;;;;6268465;22;20103;-82
2023/11/23 05:51:38;;;;;;;0.75;0.63;;;10.10;99.90;;;;;;6294931;22;20352;-82
2023/11/23 05:54:06;;;;;;;0.65;0.50;;;10.10;99.90;;;;;;6294578;22;20073;-80
2023/11/23 05:56:33;;;;;;;0.40;0.40;;;10.10;99.90;;;;;;6266041;22;20023;-81
2023/11/23 05:59:00;;;;;;;1.23;0.70;;;10.10;77.10;;;;;;6242221;22;20023;-81
2023/11/23 06:01:27;;;;;;;1.00;0.45;;;10.10;92.00;;;;;;6215833;22;20073;-82
2023/11/23 06:03:54;;;;;;;0.88;0.50;;;10.10;91.20;;;;;;6238787;22;20029;-84
2023/11/23 06:06:23;;;;;;;0.55;0.40;;;10.10;27.00;;;;;;6266098;22;20027;-83
2023/11/23 06:08:50;;;;;;;0.65;0.40;;;10.10;80.20;;;;;;6215382;22;20149;-82
2023/11/23 06:11:18;;;;;;;0.70;0.50;;;10.10;36.70;;;;;;6240539;22;20486;-81
2023/11/23 06:13:45;;;;;;;0.65;0.40;;;10.10;1.60;;;;;;6266107;22;20389;-83
2023/11/23 06:16:13;;;;;;;0.47;0.47;;;10.10;1.00;;;;;;6216674;22;20581;-83
2023/11/23 06:18:41;;;;;;;0.50;0.40;;;10.10;1.00;;;;;;6240807;22;20058;-82
2023/11/23 06:21:08;;;;;;;0.68;0.40;;;10.10;1.00;;;;;;6293834;22;20031;-82
2023/11/23 06:23:35;;;;;;;0.50;0.40;;;10.10;1.00;;;;;;6291812;22;20035;-84
2023/11/23 06:26:03;;;;;;;0.68;0.43;;;10.00;1.00;;;;;;6268301;22;20027;-83
2023/11/23 06:28:30;;;;;;;0.70;0.50;;;10.00;1.00;;;;;;6241705;22;20019;-84
2023/11/23 06:30:58;;;;;;;0.35;0.30;;;10.00;1.00;;;;;;6268719;22;20019;-84
2023/11/23 06:33:27;;;;;;;1.40;0.75;;;10.00;1.00;;;;;;6293511;22;20510;-83
2023/11/23 06:35:55;;;;;;;0.50;0.40;;;10.00;1.00;;;;;;6242551;22;20216;-85
2023/11/23 06:38:23;;;;;;;0.38;0.35;;;9.90;1.00;;;;;;6239641;22;20019;-82
2023/11/23 06:40:50;;;;;;;0.60;0.47;;;10.00;1.40;;;;;;6241607;22;20105;-82
2023/11/23 06:43:17;;;;;;;0.63;0.50;;;10.00;10.60;;;;;;6240584;22;20020;-82
2023/11/23 06:45:44;;;;;;;0.30;0.30;;;9.90;16.30;;;;;;6266572;22;20027;-82
2023/11/23 06:48:11;;;;;;;0.60;0.60;;;9.90;65.50;;;;;;6242025;22;20126;-82
2023/11/23 06:50:38;;;;;;;2.60;0.70;;;9.90;97.60;;;;;;6268797;22;20469;-82
2023/11/23 06:53:05;;;;;;;0.57;0.43;;;10.00;61.70;;;;;;6266435;22;20038;-83
2023/11/23 06:55:33;;;;;;;0.57;0.43;;;10.00;99.90;;;;;;6217612;22;20412;-82
2023/11/23 06:58:00;;;;;;;0.88;0.80;;;10.00;51.00;;;;;;6241618;22;20022;-80
2023/11/23 07:00:27;;;;;;;1.15;0.63;;;10.00;1.00;;;;;;6293733;22;20019;-80
2023/11/23 07:02:55;;;;;;;0.85;0.50;;;10.00;10.10;;;;;;6266745;22;20090;-80
2023/11/23 07:05:26;;;;;;;0.95;0.70;;;10.00;1.00;;;;;;6243151;22;20121;-80
2023/11/23 07:07:53;;;;;;;1.00;0.80;;;10.10;1.00;;;;;;6216975;22;20019;-80
2023/11/23 07:10:20;;;;;;;0.65;0.60;;;10.10;1.00;;;;;;6268069;22;20041;-79
2023/11/23 07:12:49;;;;;;;0.75;0.60;;;10.10;1.00;;;;;;6267915;22;20131;-80
2023/11/23 07:15:17;;;;;;;0.55;0.55;;;10.10;1.00;;;;;;6217756;22;20023;-80
2023/11/23 07:17:45;;;;;;;1.33;0.50;;;10.10;99.90;;;;;;6242755;22;20192;-79
2023/11/23 07:20:12;;;;;;;1.02;0.70;;;10.10;99.90;;;;;;6217461;22;20495;-80
2023/11/23 07:22:39;;;;;;;0.63;0.60;;;10.20;99.90;;;;;;6267203;22;20019;-79
2023/11/23 07:25:10;;;;;;;0.52;0.52;;;10.20;99.90;;;;;;6267114;22;20023;-80
2023/11/23 07:27:37;;;;;;;0.77;0.70;;;10.20;99.90;;;;;;6244208;22;20325;-80
2023/11/23 07:30:06;;;;;;;0.77;0.65;;;10.30;1.00;;;;;;6267834;22;20019;-80
2023/11/23 07:32:34;;;;;;;1.02;0.70;;;10.30;99.90;;;;;;6243049;22;20019;-80
2023/11/23 07:35:02;;;;;;;1.45;0.70;;;10.30;99.90;;;;;;6267508;22;20019;-80
2023/11/23 07:37:30;;;;;;;0.85;0.80;;;10.30;99.90;;;;;;6267746;22;20034;-80
2023/11/23 07:39:57;;;;;;;0.73;0.52;;;10.30;99.90;;;;;;6240824;22;20045;-80
2023/11/23 07:42:28;;;;;;;0.82;0.52;;;10.30;99.90;;;;;;6267960;22;20126;-80
2023/11/23 07:44:55;;;;;;;1.15;0.80;;;10.40;30.00;;;;;;6244174;22;20030;-80
2023/11/23 07:47:24;;;;;;;1.75;0.85;;;10.30;45.20;;;;;;6268428;22;20038;-79
2023/11/23 07:49:52;;;;;;;1.25;0.80;;;10.40;19.30;;;;;;6267878;22;20034;-79
2023/11/23 07:52:20;;;;;;;1.38;0.70;;;10.40;1.00;;;;;;6266711;22;20088;-79
2023/11/23 07:54:47;;;;;;;0.82;0.60;;;10.40;1.00;;;;;;6266398;22;20023;-80
2023/11/23 07:57:14;;;;;;;0.52;0.50;;;10.40;99.90;;;;;;6267025;22;20409;-80
2023/11/23 07:59:43;;;;;;;0.50;0.50;;;10.40;99.90;;;;;;6242552;22;20031;-79
2023/11/23 08:02:10;;;;;;;1.10;0.80;;;10.50;99.90;;;;;;6241892;22;20022;-79
2023/11/23 08:04:37;;;;;;;0.50;0.50;;;10.50;99.90;;;;;;6268461;22;20169;-80
2023/11/23 08:07:04;;;;;;;1.42;0.85;;;10.50;99.90;;;;;;6217153;22;20057;-79
2023/11/23 08:09:32;;;;;;;0.82;0.60;;;10.50;96.20;;;;;;6266423;22;20027;-79
2023/11/23 08:11:58;;;;;;;1.23;0.68;;;10.60;1.00;;;;;;6294156;22;20102;-78
2023/11/23 08:14:25;;;;;;;0.60;0.60;;;10.60;99.90;;;;;;6242418;22;20077;-79
2023/11/23 08:16:52;;;;;;;0.95;0.70;;;10.60;99.90;;;;;;6267334;22;20027;-79
2023/11/23 08:19:21;;;;;;;0.60;0.60;;;10.60;99.90;;;;;;6217072;22;20019;-79
2023/11/23 08:21:49;;;;;;;0.95;0.65;;;10.60;99.90;;;;;;6242387;22;20015;-79
2023/11/23 08:24:17;;;;;;;0.70;0.60;;;10.60;68.30;;;;;;6241256;22;20058;-79
2023/11/23 08:26:44;;;;;;;1.02;0.60;;;10.70;1.00;;;;;;6266925;22;20103;-79
2023/11/23 08:29:11;;;;;;;1.05;0.90;;;10.70;1.00;;;;;;6241557;22;20015;-78
2023/11/23 08:31:39;;;;;;;1.90;1.08;;;10.70;99.90;;;;;;6268295;22;20031;-78
2023/11/23 08:34:07;;;;;;;1.90;1.35;;;10.80;99.90;;;;;;6297719;22;20090;-78
2023/11/23 08:36:35;;;;;;;3.30;1.48;;;10.80;99.90;;;;;;6246203;22;20039;-78
2023/11/23 08:39:04;;;;;;;1.73;1.17;;;10.80;99.90;;;;;;6220008;22;20015;-79
2023/11/23 08:41:31;;;;;;;2.03;1.30;;;10.90;1.00;;;;;;6271306;22;20030;-79
2023/11/23 08:43:59;;;;;;;1.23;0.95;;;10.90;1.00;;;;;;6270746;22;20080;-78
2023/11/23 08:46:27;;;;;;;1.70;1.30;;;10.90;1.00;;;;;;6298982;22;20023;-78
2023/11/23 08:48:54;;;;;;;2.85;1.48;;;11.00;99.90;;;;;;6245663;22;20086;-79
2023/11/23 08:51:22;;;;;;;2.03;1.25;;;11.00;99.90;;;;;;6245590;22;20481;-80
2023/11/23 08:53:49;;;;;;;1.33;1.20;;;11.00;99.90;;;;;;6269193;22;20019;-79
2023/11/23 08:56:17;;;;;;;2.17;1.58;;;11.10;99.90;;;;;;6221649;22;20049;-79
2023/11/23 08:58:45;;;;;;;1.45;1.30;;;11.10;52.00;;;;;;6271633;22;20023;-79
2023/11/23 09:01:12;;;;;;;1.58;1.27;;;11.10;1.00;;;;;;6298601;22;20590;-78
2023/11/23 09:03:39;;;;;;;1.42;1.33;;;11.20;1.00;;;;;;6270774;22;20023;-79
2023/11/23 09:06:08;;;;;;;1.98;1.02;;;11.20;99.90;;;;;;6245956;22;20030;-79
2023/11/23 09:08:40;;;;;;;2.22;1.50;;;11.30;99.90;;;;;;6269876;22;20023;-78
2023/11/23 09:11:07;;;;;;;2.08;1.83;;;11.30;99.90;;;;;;6298067;22;20115;-79
2023/11/23 09:13:33;;;;;;;1.67;1.30;;;11.30;99.90;;;;;;6271203;22;20045;-78
2023/11/23 09:16:01;;;;;;;2.45;1.27;;;11.30;99.90;;;;;;6271592;22;20019;-78
2023/11/23 09:18:28;;;;;;;1.48;1.05;;;11.30;99.90;;;;;;6270739;22;20016;-78
2023/11/23 09:20:55;;;;;;;1.98;1.38;;;11.40;1.00;;;;;;6268856;22;20034;-83
2023/11/23 09:23:27;;;;;;;2.45;1.40;;;11.40;1.00;;;;;;6244031;22;20119;-79
2023/11/23 09:25:56;;;;;;;0.95;0.85;;;11.40;1.00;;;;;;6289650;22;20046;-80
2023/11/23 09:28:23;;;;;;;1.20;0.98;;;11.40;1.00;;;;;;6234803;22;20019;-79
2023/11/23 09:30:51;;;;;;;1.58;1.27;;;11.40;99.90;;;;;;6262140;22;20015;-73
2023/11/23 09:33:18;;;;;;;1.45;1.20;;;11.50;99.90;;;;;;6288505;22;20027;-73
2023/11/23 09:35:47;;;;;;;1.35;1.05;;;11.50;99.90;;;;;;6290258;22;20088;-73
2023/11/23 09:38:14;;;;;;;1.00;0.90;;;11.50;99.90;;;;;;6260106;22;20034;-73
2023/11/23 09:40:41;;;;;;;0.88;0.80;;;11.60;99.90;;;;;;6288853;22;20092;-73
2023/11/23 09:43:09;;;;;;;1.45;1.10;;;11.70;99.90;;;;;;6262294;22;20039;-73
2023/11/23 09:45:36;;;;;;;1.67;1.20;;;11.80;22.80;;;;;;6237846;22;20351;-73
2023/11/23 09:48:06;;;;;;;2.08;1.30;;;11.90;1.00;;;;;;6262405;22;20053;-73
2023/11/23 09:50:33;;;;;;;1.73;1.58;;;12.00;1.00;;;;;;6262754;22;20024;-74
2023/11/23 09:53:06;;;;;;;2.20;1.38;;;12.00;99.90;;;;;;6286512;22;20023;-75
2023/11/23 09:55:33;;;;;;;2.42;1.58;;;11.90;1.00;;;;;;6240312;22;20058;-73
2023/11/23 09:58:00;;;;;;;1.80;1.27;;;12.00;99.90;;;;;;6265586;22;20042;-73
2023/11/23 10:00:27;;;;;;;2.08;1.50;;;12.00;1.00;;;;;;6292958;22;20055;-73
2023/11/23 10:02:57;;;;;;;1.55;1.33;;;12.00;99.90;;;;;;6265803;22;20019;-73
2023/11/23 10:05:24;;;;;;;1.98;1.38;;;12.00;99.90;;;;;;6242587;22;20015;-73
2023/11/23 10:07:53;;;;;;;1.35;1.17;;;12.00;99.90;;;;;;6239967;22;20343;-73
2023/11/23 10:10:21;;;;;;;2.72;1.13;;;12.10;99.90;;;;;;6293985;22;20019;-73
2023/11/23 10:12:49;;;;;;;1.83;1.35;;;12.10;99.90;;;;;;6293376;22;20030;-73
2023/11/23 10:15:16;;;;;;;4.82;1.23;;;12.20;99.90;;;;;;6293426;22;20484;-73
2023/11/23 10:17:43;;;;;;;2.63;1.17;;;12.20;99.90;;;;;;6293435;22;20027;-74
2023/11/23 10:20:16;;;;;;;2.20;1.02;;;12.20;99.90;;;;;;6293851;22;20023;-75
2023/11/23 10:22:46;;;;;;;1.20;1.00;;;12.30;99.90;;;;;;6293352;22;20072;-74
2023/11/23 10:25:35;;;;;;;1.13;1.00;;;12.30;99.90;;;;;;6266645;22;20026;-74
2023/11/23 10:28:07;;;;;;;1.55;1.02;;;12.20;99.90;;;;;;6293010;22;20041;-75
2023/11/23 10:30:38;;;;;;;1.42;1.10;;;12.20;99.90;;;;;;6291600;22;20528;-75
2023/11/23 10:33:05;;;;;;;2.33;1.52;;;12.20;99.90;;;;;;6291670;22;20084;-74
2023/11/23 10:35:40;;;;;;;2.22;1.30;;;12.10;99.90;;;;;;6290928;22;20601;-75
2023/11/23 10:38:07;;;;;;;2.53;1.30;;;12.10;99.90;;;;;;6289706;22;20097;-74
2023/11/23 10:40:34;;;;;;;1.10;1.00;;;12.10;99.90;;;;;;6290304;22;20388;-72
2023/11/23 10:43:02;;;;;;;3.38;1.48;;;12.10;99.90;;;;;;6288402;22;20075;-72
2023/11/23 10:45:30;;;;;;;2.85;1.10;;;12.00;99.90;;;;;;6261756;22;20380;-73
2023/11/23 10:48:02;;;;;;;1.23;0.97;;;12.00;99.90;;;;;;6287854;22;20176;-73
2023/11/23 10:50:29;;;;;;;1.48;1.17;;;12.00;99.90;;;;;;6236403;22;20023;-72
2023/11/23 10:52:57;;;;;;;3.47;1.30;;;12.00;99.90;;;;;;6235676;22;20228;-73
2023/11/23 10:55:24;;;;;;;2.08;1.52;;;12.10;99.90;;;;;;6237242;22;20022;-72
2023/11/23 10:57:58;;;;;;;3.20;1.40;;;12.00;99.90;;;;;;6262331;22;20068;-72
2023/11/23 11:00:25;;;;;;;1.20;1.08;;;12.00;99.90;;;;;;6261451;22;20030;-73
2023/11/23 11:02:54;;;;;;;1.98;1.00;;;12.00;99.90;;;;;;6262717;22;20427;-72
2023/11/23 11:05:29;;;;;;;1.15;0.95;;;12.00;99.90;;;;;;6237841;22;20472;-72
2023/11/23 11:08:05;;;;;;;1.00;0.90;;;12.00;99.90;;;;;;6262449;22;20254;-72
2023/11/23 11:10:40;;;;;;;1.00;0.90;;;12.00;99.90;;;;;;6237219;22;20531;-72
2023/11/23 11:13:10;;;;;;;0.70;0.70;;;12.10;99.90;;;;;;6289252;22;20111;-72
2023/11/23 11:15:47;;;;;;;1.35;0.85;;;12.20;99.90;;;;;;6212820;22;20043;-72
2023/11/23 11:18:19;;;;;;;1.13;0.85;;;12.20;99.90;;;;;;6239416;22;20027;-73
2023/11/23 11:21:07;;;;;;;1.00;0.70;;;12.30;99.90;;;;;;6237952;22;20478;-73
2023/11/23 11:23:44;;;;;;;0.90;0.75;;;12.30;99.90;;;;;;6263882;22;20102;-84
2023/11/23 11:26:24;;;;;;;1.70;1.38;;;12.30;99.90;;;;;;6261537;22;20023;-73
2023/11/23 11:29:00;;;;;;;1.40;0.90;;;12.30;99.90;;;;;;6287088;22;20540;-74
2023/11/23 11:31:37;;;;;;;1.98;0.82;;;12.30;99.90;;;;;;6285591;22;20062;-73
2023/11/23 11:34:19;;;;;;;1.30;0.90;;;12.30;99.90;;;;;;6286790;22;20088;-73
2023/11/23 11:37:07;;;;;;;0.97;0.57;;;12.30;99.90;;;;;;6287491;22;20128;-73
2023/11/23 11:39:39;;;;;;;1.15;0.88;;;12.30;99.90;;;;;;6235229;22;20051;-73
2023/11/23 11:42:10;;;;;;;0.93;0.70;;;12.30;99.90;;;;;;6287539;22;20031;-74
2023/11/23 11:44:43;;;;;;;1.30;0.80;;;12.40;99.90;;;;;;6287281;22;20026;-73
2023/11/23 11:47:10;;;;;;;1.42;1.00;;;12.40;99.90;;;;;;6260336;22;20034;-73
2023/11/23 11:49:37;;;;;;;2.33;1.17;;;12.50;90.40;;;;;;6261478;22;20050;-73
2023/11/23 11:52:08;;;;;;;2.67;1.58;;;12.50;84.50;;;;;;6287963;22;20094;-73
2023/11/23 11:54:38;;;;;;;2.75;1.13;;;12.60;80.70;;;;;;6285945;22;20080;-73
2023/11/23 11:57:05;;;;;;;3.15;1.30;;;12.70;71.50;;;;;;6260574;22;20073;-73
2023/11/23 11:59:35;;;;;;;1.88;1.15;;;12.90;69.00;;;;;;6288268;22;20400;-74
2023/11/23 12:02:04;;;;;;;2.33;1.20;;;13.00;60.10;;;;;;6261568;22;20023;-74
2023/11/23 12:04:33;;;;;;;2.10;1.40;;;13.20;50.10;;;;;;6236775;22;20381;-74
2023/11/23 12:07:01;;;;;;;1.40;1.30;;;13.40;41.10;;;;;;6287409;22;20120;-74
2023/11/23 12:09:28;;;;;;;1.85;1.33;;;13.60;32.20;;;;;;6286591;22;20026;-75
2023/11/23 12:12:10;;;;;;;2.00;1.50;;;13.60;25.20;;;;;;6263325;22;20513;-75
2023/11/23 12:14:37;;;;;;;1.50;1.10;;;13.80;20.20;;;;;;6236675;22;20023;-75
2023/11/23 12:17:11;;;;;;;2.13;1.45;;;13.90;19.20;;;;;;6287589;22;20480;-75
2023/11/23 12:19:57;;;;;;;2.05;1.50;;;13.80;12.60;;;;;;6258909;22;20369;-74
2023/11/23 12:22:26;;;;;;;2.25;1.83;;;13.70;11.20;;;;;;6286535;22;20078;-74
2023/11/23 12:24:55;;;;;;;2.17;1.63;;;13.70;10.40;;;;;;6287429;22;20102;-73
2023/11/23 12:27:24;;;;;;;2.45;1.60;;;13.80;11.00;;;;;;6260266;22;20047;-73
2023/11/23 12:29:52;;;;;;;3.38;1.70;;;13.90;9.20;;;;;;6286541;22;20034;-74
2023/11/23 12:32:19;;;;;;;2.00;1.27;;;14.10;5.90;;;;;;6285276;22;20073;-75
2023/11/23 12:34:46;;;;;;;2.65;1.67;;;14.20;4.90;;;;;;6288188;22;20019;-74
2023/11/23 12:37:14;;;;;;;1.50;1.30;;;14.40;1.00;;;;;;6260950;22;20031;-74
2023/11/23 12:39:41;;;;;;;1.63;1.30;;;14.50;1.00;;;;;;6235250;22;20026;-75
2023/11/23 12:42:08;;;;;;;2.00;1.65;;;14.60;1.00;;;;;;6288582;22;20100;-74
2023/11/23 12:44:35;;;;;;;2.30;1.83;;;14.70;1.00;;;;;;6287714;22;20034;-75
2023/11/23 12:47:03;;;;;;;2.40;1.67;;;14.70;1.00;;;;;;6288076;22;20023;-74
2023/11/23 12:49:30;;;;;;;2.47;1.77;;;14.80;1.00;;;;;;6288546;22;20015;-74
2023/11/23 12:51:57;;;;;;;2.00;1.80;;;14.90;1.00;;;;;;6259814;22;20147;-74
2023/11/23 12:54:25;;;;;;;2.47;1.67;;;14.90;1.00;;;;;;6286451;22;20019;-75
2023/11/23 12:56:52;;;;;;;4.32;2.70;;;14.80;1.00;;;;;;6260802;22;20027;-74